sensor_id;sensor_type;location;lat;lon;timestamp;temperature;humidity
70826;SHT31;58446;41.490;22.098;2024-03-02T00:00:10;12.63;82.44
70826;SHT31;58446;41.490;22.098;2024-03-02T00:02:45;12.68;82.23
70826;SHT31;58446;41.490;22.098;2024-03-02T00:05:12;12.70;82.05
70826;SHT31;58446;41.490;22.098;2024-03-02T00:07:41;12.70;81.94
70826;SHT31;58446;41.490;22.098;2024-03-02T00:10:09;12.69;82.08
70826;SHT31;58446;41.490;22.098;2024-03-02T00:12:39;12.73;81.74
70826;SHT31;58446;41.490;22.098;2024-03-02T00:15:13;12.68;82.08
70826;SHT31;58446;41.490;22.098;2024-03-02T00:17:44;12.77;81.71
70826;SHT31;58446;41.490;22.098;2024-03-02T00:20:22;12.65;82.34
70826;SHT31;58446;41.490;22.098;2024-03-02T00:22:48;12.69;81.95
70826;SHT31;58446;41.490;22.098;2024-03-02T00:25:14;12.79;81.74
70826;SHT31;58446;41.490;22.098;2024-03-02T00:27:40;12.73;81.68
70826;SHT31;58446;41.490;22.098;2024-03-02T00:30:35;12.58;82.29
70826;SHT31;58446;41.490;22.098;2024-03-02T00:33:02;12.45;82.93
70826;SHT31;58446;41.490;22.098;2024-03-02T00:35:28;12.25;83.28
70826;SHT31;58446;41.490;22.098;2024-03-02T00:37:54;11.71;85.31
70826;SHT31;58446;41.490;22.098;2024-03-02T00:40:20;11.63;85.54
70826;SHT31;58446;41.490;22.098;2024-03-02T00:42:46;11.53;85.79
70826;SHT31;58446;41.490;22.098;2024-03-02T00:45:12;11.44;86.26
70826;SHT31;58446;41.490;22.098;2024-03-02T00:47:40;11.63;86.36
70826;SHT31;58446;41.490;22.098;2024-03-02T00:50:07;12.02;84.95
70826;SHT31;58446;41.490;22.098;2024-03-02T00:52:34;12.28;83.73
70826;SHT31;58446;41.490;22.098;2024-03-02T00:55:01;12.42;83.21
70826;SHT31;58446;41.490;22.098;2024-03-02T00:57:30;12.45;82.94
70826;SHT31;58446;41.490;22.098;2024-03-02T01:00:00;12.42;83.07
70826;SHT31;58446;41.490;22.098;2024-03-02T01:02:26;12.58;82.51
70826;SHT31;58446;41.490;22.098;2024-03-02T01:04:52;12.66;82.01
70826;SHT31;58446;41.490;22.098;2024-03-02T01:07:17;12.70;81.95
70826;SHT31;58446;41.490;22.098;2024-03-02T01:09:43;12.69;81.89
70826;SHT31;58446;41.490;22.098;2024-03-02T01:12:10;12.80;81.56
70826;SHT31;58446;41.490;22.098;2024-03-02T01:14:36;12.75;81.72
70826;SHT31;58446;41.490;22.098;2024-03-02T01:17:01;12.65;81.82
70826;SHT31;58446;41.490;22.098;2024-03-02T01:19:30;12.28;83.05
70826;SHT31;58446;41.490;22.098;2024-03-02T01:21:55;12.11;83.87
70826;SHT31;58446;41.490;22.098;2024-03-02T01:24:21;12.41;83.12
70826;SHT31;58446;41.490;22.098;2024-03-02T01:26:47;12.36;83.29
70826;SHT31;58446;41.490;22.098;2024-03-02T01:29:12;12.07;84.18
70826;SHT31;58446;41.490;22.098;2024-03-02T01:31:38;11.87;84.71
70826;SHT31;58446;41.490;22.098;2024-03-02T01:34:07;11.80;84.85
70826;SHT31;58446;41.490;22.098;2024-03-02T01:36:33;11.67;85.40
70826;SHT31;58446;41.490;22.098;2024-03-02T01:38:58;11.36;86.78
70826;SHT31;58446;41.490;22.098;2024-03-02T01:41:25;11.27;87.48
70826;SHT31;58446;41.490;22.098;2024-03-02T01:43:50;11.37;87.08
70826;SHT31;58446;41.490;22.098;2024-03-02T01:46:16;11.73;85.94
70826;SHT31;58446;41.490;22.098;2024-03-02T01:48:42;11.97;85.08
70826;SHT31;58446;41.490;22.098;2024-03-02T01:51:08;12.21;83.99
70826;SHT31;58446;41.490;22.098;2024-03-02T01:53:37;12.28;83.67
70826;SHT31;58446;41.490;22.098;2024-03-02T01:56:03;12.38;83.15
70826;SHT31;58446;41.490;22.098;2024-03-02T01:58:29;12.48;82.73
70826;SHT31;58446;41.490;22.098;2024-03-02T02:00:54;12.52;82.48
70826;SHT31;58446;41.490;22.098;2024-03-02T02:03:20;12.58;82.08
70826;SHT31;58446;41.490;22.098;2024-03-02T02:05:46;12.49;82.44
70826;SHT31;58446;41.490;22.098;2024-03-02T02:08:13;12.39;82.87
70826;SHT31;58446;41.490;22.098;2024-03-02T02:10:39;12.21;83.01
70826;SHT31;58446;41.490;22.098;2024-03-02T02:13:04;12.05;83.45
70826;SHT31;58446;41.490;22.098;2024-03-02T02:15:31;11.80;84.42
70826;SHT31;58446;41.490;22.098;2024-03-02T02:17:58;11.74;84.86
70826;SHT31;58446;41.490;22.098;2024-03-02T02:20:24;11.44;85.78
70826;SHT31;58446;41.490;22.098;2024-03-02T02:25:22;11.27;86.76
70826;SHT31;58446;41.490;22.098;2024-03-02T02:27:48;11.36;86.90
70826;SHT31;58446;41.490;22.098;2024-03-02T02:30:35;11.77;85.63
70826;SHT31;58446;41.490;22.098;2024-03-02T02:33:01;12.10;84.22
70826;SHT31;58446;41.490;22.098;2024-03-02T02:35:27;12.24;83.48
70826;SHT31;58446;41.490;22.098;2024-03-02T02:37:54;12.34;83.00
70826;SHT31;58446;41.490;22.098;2024-03-02T02:40:20;12.35;82.85
70826;SHT31;58446;41.490;22.098;2024-03-02T02:42:46;12.25;83.22
70826;SHT31;58446;41.490;22.098;2024-03-02T02:45:12;12.31;83.21
70826;SHT31;58446;41.490;22.098;2024-03-02T02:47:42;12.31;83.07
70826;SHT31;58446;41.490;22.098;2024-03-02T02:50:09;12.29;83.15
70826;SHT31;58446;41.490;22.098;2024-03-02T02:52:37;12.29;83.16
70826;SHT31;58446;41.490;22.098;2024-03-02T02:55:05;12.48;82.37
70826;SHT31;58446;41.490;22.098;2024-03-02T02:57:32;12.52;82.07
70826;SHT31;58446;41.490;22.098;2024-03-02T03:00:03;12.41;82.31
70826;SHT31;58446;41.490;22.098;2024-03-02T03:02:31;12.35;82.69
70826;SHT31;58446;41.490;22.098;2024-03-02T03:04:56;12.41;82.57
70826;SHT31;58446;41.490;22.098;2024-03-02T03:07:23;12.50;82.29
70826;SHT31;58446;41.490;22.098;2024-03-02T03:09:48;12.50;82.10
70826;SHT31;58446;41.490;22.098;2024-03-02T03:12:14;12.59;81.81
70826;SHT31;58446;41.490;22.098;2024-03-02T03:14:43;12.53;81.78
70826;SHT31;58446;41.490;22.098;2024-03-02T03:17:08;12.60;81.72
70826;SHT31;58446;41.490;22.098;2024-03-02T03:19:34;12.55;81.91
70826;SHT31;58446;41.490;22.098;2024-03-02T03:22:01;12.55;81.97
70826;SHT31;58446;41.490;22.098;2024-03-02T03:24:26;12.62;81.63
70826;SHT31;58446;41.490;22.098;2024-03-02T03:26:52;12.65;81.53
70826;SHT31;58446;41.490;22.098;2024-03-02T03:29:18;12.65;81.64
70826;SHT31;58446;41.490;22.098;2024-03-02T03:31:43;12.63;81.59
70826;SHT31;58446;41.490;22.098;2024-03-02T03:34:09;12.66;81.55
70826;SHT31;58446;41.490;22.098;2024-03-02T03:36:35;12.65;81.80
70826;SHT31;58446;41.490;22.098;2024-03-02T03:39:00;12.56;82.02
70826;SHT31;58446;41.490;22.098;2024-03-02T03:41:28;12.56;81.94
70826;SHT31;58446;41.490;22.098;2024-03-02T03:43:54;12.55;81.87
70826;SHT31;58446;41.490;22.098;2024-03-02T03:46:20;12.46;82.30
70826;SHT31;58446;41.490;22.098;2024-03-02T03:48:46;12.59;81.94
70826;SHT31;58446;41.490;22.098;2024-03-02T03:51:12;12.66;81.66
70826;SHT31;58446;41.490;22.098;2024-03-02T03:53:38;12.68;81.51
70826;SHT31;58446;41.490;22.098;2024-03-02T03:56:04;12.70;81.44
70826;SHT31;58446;41.490;22.098;2024-03-02T03:58:29;12.48;82.14
70826;SHT31;58446;41.490;22.098;2024-03-02T04:00:55;12.35;82.79
70826;SHT31;58446;41.490;22.098;2024-03-02T04:03:22;12.42;82.45
70826;SHT31;58446;41.490;22.098;2024-03-02T04:05:47;12.41;82.73
70826;SHT31;58446;41.490;22.098;2024-03-02T04:08:13;12.32;83.04
70826;SHT31;58446;41.490;22.098;2024-03-02T04:10:39;12.41;82.72
70826;SHT31;58446;41.490;22.098;2024-03-02T04:13:05;12.21;83.72
70826;SHT31;58446;41.490;22.098;2024-03-02T04:15:31;12.39;82.69
70826;SHT31;58446;41.490;22.098;2024-03-02T04:17:57;12.41;82.56
70826;SHT31;58446;41.490;22.098;2024-03-02T04:20:22;12.50;82.24
70826;SHT31;58446;41.490;22.098;2024-03-02T04:22:48;12.53;82.10
70826;SHT31;58446;41.490;22.098;2024-03-02T04:25:14;12.50;82.15
70826;SHT31;58446;41.490;22.098;2024-03-02T04:27:39;12.48;82.23
70826;SHT31;58446;41.490;22.098;2024-03-02T04:30:07;12.53;82.08
70826;SHT31;58446;41.490;22.098;2024-03-02T04:32:32;12.52;82.08
70826;SHT31;58446;41.490;22.098;2024-03-02T04:34:58;12.41;82.35
70826;SHT31;58446;41.490;22.098;2024-03-02T04:37:24;12.41;82.44
70826;SHT31;58446;41.490;22.098;2024-03-02T04:39:49;12.42;82.58
70826;SHT31;58446;41.490;22.098;2024-03-02T04:42:15;12.55;82.05
70826;SHT31;58446;41.490;22.098;2024-03-02T04:44:41;12.53;81.80
70826;SHT31;58446;41.490;22.098;2024-03-02T04:47:06;12.56;82.01
70826;SHT31;58446;41.490;22.098;2024-03-02T04:49:32;12.63;81.57
70826;SHT31;58446;41.490;22.098;2024-03-02T04:51:58;12.63;81.51
70826;SHT31;58446;41.490;22.098;2024-03-02T04:54:24;12.59;81.55
70826;SHT31;58446;41.490;22.098;2024-03-02T04:56:49;12.58;81.74
70826;SHT31;58446;41.490;22.098;2024-03-02T04:59:16;12.53;81.82
70826;SHT31;58446;41.490;22.098;2024-03-02T05:01:42;12.53;81.91
70826;SHT31;58446;41.490;22.098;2024-03-02T05:04:08;12.50;81.94
70826;SHT31;58446;41.490;22.098;2024-03-02T05:06:37;12.48;82.23
70826;SHT31;58446;41.490;22.098;2024-03-02T05:09:04;12.52;81.91
70826;SHT31;58446;41.490;22.098;2024-03-02T05:11:30;12.59;81.64
70826;SHT31;58446;41.490;22.098;2024-03-02T05:14:05;12.63;81.53
70826;SHT31;58446;41.490;22.098;2024-03-02T05:16:35;12.62;81.49
70826;SHT31;58446;41.490;22.098;2024-03-02T05:19:02;12.48;81.86
70826;SHT31;58446;41.490;22.098;2024-03-02T05:21:27;12.39;82.24
70826;SHT31;58446;41.490;22.098;2024-03-02T05:23:53;12.38;82.46
70826;SHT31;58446;41.490;22.098;2024-03-02T05:26:19;12.49;81.90
70826;SHT31;58446;41.490;22.098;2024-03-02T05:28:44;12.50;81.96
70826;SHT31;58446;41.490;22.098;2024-03-02T05:31:10;12.56;81.79
70826;SHT31;58446;41.490;22.098;2024-03-02T05:33:40;12.62;81.56
70826;SHT31;58446;41.490;22.098;2024-03-02T05:36:06;12.66;81.38
70826;SHT31;58446;41.490;22.098;2024-03-02T05:38:34;12.59;81.47
70826;SHT31;58446;41.490;22.098;2024-03-02T05:41:00;12.56;81.59
70826;SHT31;58446;41.490;22.098;2024-03-02T05:43:25;12.52;81.78
70826;SHT31;58446;41.490;22.098;2024-03-02T05:45:51;12.56;81.57
70826;SHT31;58446;41.490;22.098;2024-03-02T05:48:17;12.50;81.73
70826;SHT31;58446;41.490;22.098;2024-03-02T05:50:42;12.44;81.93
70826;SHT31;58446;41.490;22.098;2024-03-02T05:53:08;12.49;81.92
70826;SHT31;58446;41.490;22.098;2024-03-02T05:55:34;12.58;81.61
70826;SHT31;58446;41.490;22.098;2024-03-02T05:58:00;12.69;81.21
70826;SHT31;58446;41.490;22.098;2024-03-02T06:00:31;12.70;80.90
70826;SHT31;58446;41.490;22.098;2024-03-02T06:02:57;12.69;81.02
70826;SHT31;58446;41.490;22.098;2024-03-02T06:05:23;12.69;81.05
70826;SHT31;58446;41.490;22.098;2024-03-02T06:07:50;12.65;81.22
70826;SHT31;58446;41.490;22.098;2024-03-02T06:10:16;12.62;81.35
70826;SHT31;58446;41.490;22.098;2024-03-02T06:12:43;12.63;81.27
70826;SHT31;58446;41.490;22.098;2024-03-02T06:15:09;12.66;81.17
70826;SHT31;58446;41.490;22.098;2024-03-02T06:17:35;12.60;81.47
70826;SHT31;58446;41.490;22.098;2024-03-02T06:20:02;12.65;81.32
70826;SHT31;58446;41.490;22.098;2024-03-02T06:22:28;12.70;81.15
70826;SHT31;58446;41.490;22.098;2024-03-02T06:24:54;12.69;81.09
70826;SHT31;58446;41.490;22.098;2024-03-02T06:27:20;12.70;81.11
70826;SHT31;58446;41.490;22.098;2024-03-02T06:29:45;12.68;81.19
70826;SHT31;58446;41.490;22.098;2024-03-02T06:32:11;12.38;82.42
70826;SHT31;58446;41.490;22.098;2024-03-02T06:34:37;12.31;82.82
70826;SHT31;58446;41.490;22.098;2024-03-02T06:37:03;12.36;82.62
70826;SHT31;58446;41.490;22.098;2024-03-02T06:39:29;12.39;82.58
70826;SHT31;58446;41.490;22.098;2024-03-02T06:41:59;12.60;81.86
70826;SHT31;58446;41.490;22.098;2024-03-02T06:44:27;12.49;82.19
70826;SHT31;58446;41.490;22.098;2024-03-02T06:46:53;12.31;82.79
70826;SHT31;58446;41.490;22.098;2024-03-02T06:49:19;12.48;82.52
70826;SHT31;58446;41.490;22.098;2024-03-02T06:51:45;12.69;81.82
70826;SHT31;58446;41.490;22.098;2024-03-02T06:54:10;12.73;81.33
70826;SHT31;58446;41.490;22.098;2024-03-02T06:56:36;12.73;81.50
70826;SHT31;58446;41.490;22.098;2024-03-02T06:59:04;12.85;81.21
70826;SHT31;58446;41.490;22.098;2024-03-02T07:01:29;12.79;81.20
70826;SHT31;58446;41.490;22.098;2024-03-02T07:03:55;12.83;81.13
70826;SHT31;58446;41.490;22.098;2024-03-02T07:06:21;12.83;81.14
70826;SHT31;58446;41.490;22.098;2024-03-02T07:08:46;12.82;81.33
70826;SHT31;58446;41.490;22.098;2024-03-02T07:11:12;12.85;81.30
70826;SHT31;58446;41.490;22.098;2024-03-02T07:13:38;12.92;81.55
70826;SHT31;58446;41.490;22.098;2024-03-02T07:16:04;13.20;81.14
70826;SHT31;58446;41.490;22.098;2024-03-02T07:18:32;13.30;80.58
70826;SHT31;58446;41.490;22.098;2024-03-02T07:21:07;13.36;79.84
70826;SHT31;58446;41.490;22.098;2024-03-02T07:23:33;13.46;79.38
70826;SHT31;58446;41.490;22.098;2024-03-02T07:25:59;13.37;79.92
70826;SHT31;58446;41.490;22.098;2024-03-02T07:28:27;13.24;80.48
70826;SHT31;58446;41.490;22.098;2024-03-02T07:31:00;13.10;81.61
70826;SHT31;58446;41.490;22.098;2024-03-02T07:33:26;12.93;82.25
70826;SHT31;58446;41.490;22.098;2024-03-02T07:35:53;12.93;82.08
70826;SHT31;58446;41.490;22.098;2024-03-02T07:38:19;12.99;82.96
70826;SHT31;58446;41.490;22.098;2024-03-02T07:40:45;12.83;83.29
70826;SHT31;58446;41.490;22.098;2024-03-02T07:43:11;12.79;83.30
70826;SHT31;58446;41.490;22.098;2024-03-02T07:45:36;12.66;83.60
70826;SHT31;58446;41.490;22.098;2024-03-02T07:48:02;12.73;83.49
70826;SHT31;58446;41.490;22.098;2024-03-02T07:50:31;12.73;83.70
70826;SHT31;58446;41.490;22.098;2024-03-02T07:52:59;12.79;83.65
70826;SHT31;58446;41.490;22.098;2024-03-02T07:55:25;12.87;82.92
70826;SHT31;58446;41.490;22.098;2024-03-02T07:57:50;12.93;82.65
70826;SHT31;58446;41.490;22.098;2024-03-02T08:00:16;13.02;82.40
70826;SHT31;58446;41.490;22.098;2024-03-02T08:02:42;13.14;81.92
70826;SHT31;58446;41.490;22.098;2024-03-02T08:05:08;13.13;81.76
70826;SHT31;58446;41.490;22.098;2024-03-02T08:07:34;13.23;81.34
70826;SHT31;58446;41.490;22.098;2024-03-02T08:10:00;13.58;80.06
70826;SHT31;58446;41.490;22.098;2024-03-02T08:12:25;13.94;78.92
70826;SHT31;58446;41.490;22.098;2024-03-02T08:14:51;14.15;77.68
70826;SHT31;58446;41.490;22.098;2024-03-02T08:17:17;14.32;77.14
70826;SHT31;58446;41.490;22.098;2024-03-02T08:19:43;14.67;76.77
70826;SHT31;58446;41.490;22.098;2024-03-02T08:22:09;14.98;75.78
70826;SHT31;58446;41.490;22.098;2024-03-02T08:24:35;14.91;75.10
70826;SHT31;58446;41.490;22.098;2024-03-02T08:27:01;14.99;75.53
70826;SHT31;58446;41.490;22.098;2024-03-02T08:29:27;14.98;74.63
70826;SHT31;58446;41.490;22.098;2024-03-02T08:31:53;14.88;74.81
70826;SHT31;58446;41.490;22.098;2024-03-02T08:34:19;14.74;75.67
70826;SHT31;58446;41.490;22.098;2024-03-02T08:36:46;14.63;75.48
70826;SHT31;58446;41.490;22.098;2024-03-02T08:39:12;14.55;75.55
70826;SHT31;58446;41.490;22.098;2024-03-02T08:41:47;14.46;75.77
70826;SHT31;58446;41.490;22.098;2024-03-02T08:44:14;14.41;75.75
70826;SHT31;58446;41.490;22.098;2024-03-02T08:46:40;14.39;75.67
70826;SHT31;58446;41.490;22.098;2024-03-02T08:49:06;14.30;75.97
70826;SHT31;58446;41.490;22.098;2024-03-02T08:51:32;14.06;76.55
70826;SHT31;58446;41.490;22.098;2024-03-02T08:53:58;14.08;76.32
70826;SHT31;58446;41.490;22.098;2024-03-02T08:56:24;14.41;76.64
70826;SHT31;58446;41.490;22.098;2024-03-02T08:58:51;14.80;73.89
70826;SHT31;58446;41.490;22.098;2024-03-02T09:01:18;14.91;71.77
70826;SHT31;58446;41.490;22.098;2024-03-02T09:03:45;15.12;71.81
70826;SHT31;58446;41.490;22.098;2024-03-02T09:06:11;15.52;72.38
70826;SHT31;58446;41.490;22.098;2024-03-02T09:08:37;15.25;72.33
70826;SHT31;58446;41.490;22.098;2024-03-02T09:11:05;14.70;73.86
70826;SHT31;58446;41.490;22.098;2024-03-02T09:13:31;14.40;74.27
70826;SHT31;58446;41.490;22.098;2024-03-02T09:15:57;14.34;74.39
70826;SHT31;58446;41.490;22.098;2024-03-02T09:18:23;14.32;74.42
70826;SHT31;58446;41.490;22.098;2024-03-02T09:20:48;14.06;75.09
70826;SHT31;58446;41.490;22.098;2024-03-02T09:23:14;14.09;75.08
70826;SHT31;58446;41.490;22.098;2024-03-02T09:25:40;14.10;74.80
70826;SHT31;58446;41.490;22.098;2024-03-02T09:28:05;14.22;73.58
70826;SHT31;58446;41.490;22.098;2024-03-02T09:30:32;14.22;71.85
70826;SHT31;58446;41.490;22.098;2024-03-02T09:32:58;14.41;71.97
70826;SHT31;58446;41.490;22.098;2024-03-02T09:35:24;14.70;70.98
70826;SHT31;58446;41.490;22.098;2024-03-02T09:37:50;14.94;71.57
70826;SHT31;58446;41.490;22.098;2024-03-02T09:40:16;15.11;71.71
70826;SHT31;58446;41.490;22.098;2024-03-02T09:42:43;15.31;69.82
70826;SHT31;58446;41.490;22.098;2024-03-02T09:45:10;15.49;69.34
70826;SHT31;58446;41.490;22.098;2024-03-02T09:47:36;15.42;68.20
70826;SHT31;58446;41.490;22.098;2024-03-02T09:50:02;15.46;67.73
70826;SHT31;58446;41.490;22.098;2024-03-02T09:52:30;15.56;69.30
70826;SHT31;58446;41.490;22.098;2024-03-02T09:54:56;15.76;67.23
70826;SHT31;58446;41.490;22.098;2024-03-02T09:57:22;15.80;66.75
70826;SHT31;58446;41.490;22.098;2024-03-02T09:59:47;15.85;67.66
70826;SHT31;58446;41.490;22.098;2024-03-02T10:02:13;15.97;66.24
70826;SHT31;58446;41.490;22.098;2024-03-02T10:04:40;15.97;67.01
70826;SHT31;58446;41.490;22.098;2024-03-02T10:07:20;15.90;66.53
70826;SHT31;58446;41.490;22.098;2024-03-02T10:09:47;15.86;66.30
70826;SHT31;58446;41.490;22.098;2024-03-02T10:12:16;16.03;68.08
70826;SHT31;58446;41.490;22.098;2024-03-02T10:14:42;16.06;68.40
70826;SHT31;58446;41.490;22.098;2024-03-02T10:17:10;16.17;67.69
70826;SHT31;58446;41.490;22.098;2024-03-02T10:19:37;16.20;67.73
70826;SHT31;58446;41.490;22.098;2024-03-02T10:22:07;16.34;66.05
70826;SHT31;58446;41.490;22.098;2024-03-02T10:24:40;16.45;64.37
70826;SHT31;58446;41.490;22.098;2024-03-02T10:27:10;16.68;65.83
70826;SHT31;58446;41.490;22.098;2024-03-02T10:29:40;16.72;65.28
70826;SHT31;58446;41.490;22.098;2024-03-02T10:32:09;16.85;64.49
70826;SHT31;58446;41.490;22.098;2024-03-02T10:34:36;16.82;65.67
70826;SHT31;58446;41.490;22.098;2024-03-02T10:37:03;16.89;65.81
70826;SHT31;58446;41.490;22.098;2024-03-02T10:39:29;17.02;64.60
70826;SHT31;58446;41.490;22.098;2024-03-02T10:41:57;17.23;63.62
70826;SHT31;58446;41.490;22.098;2024-03-02T10:44:25;16.71;64.62
70826;SHT31;58446;41.490;22.098;2024-03-02T10:46:52;16.18;64.37
70826;SHT31;58446;41.490;22.098;2024-03-02T10:49:19;16.18;64.81
70826;SHT31;58446;41.490;22.098;2024-03-02T10:51:47;16.22;64.34
70826;SHT31;58446;41.490;22.098;2024-03-02T10:54:13;16.51;65.71
70826;SHT31;58446;41.490;22.098;2024-03-02T10:56:39;16.88;63.38
70826;SHT31;58446;41.490;22.098;2024-03-02T11:01:47;17.16;63.43
70826;SHT31;58446;41.490;22.098;2024-03-02T11:04:15;17.36;63.47
70826;SHT31;58446;41.490;22.098;2024-03-02T11:06:51;17.19;62.67
70826;SHT31;58446;41.490;22.098;2024-03-02T11:09:21;17.05;63.68
70826;SHT31;58446;41.490;22.098;2024-03-02T11:12:12;16.55;62.56
70826;SHT31;58446;41.490;22.098;2024-03-02T11:14:41;16.49;62.33
70826;SHT31;58446;41.490;22.098;2024-03-02T11:17:11;16.27;63.12
70826;SHT31;58446;41.490;22.098;2024-03-02T11:19:38;16.24;63.48
70826;SHT31;58446;41.490;22.098;2024-03-02T11:22:05;16.38;64.57
70826;SHT31;58446;41.490;22.098;2024-03-02T11:24:32;16.67;63.72
70826;SHT31;58446;41.490;22.098;2024-03-02T11:27:05;16.96;63.32
70826;SHT31;58446;41.490;22.098;2024-03-02T11:34:41;17.53;62.21
70826;SHT31;58446;41.490;22.098;2024-03-02T11:37:10;17.67;61.68
70826;SHT31;58446;41.490;22.098;2024-03-02T11:39:37;17.16;61.19
70826;SHT31;58446;41.490;22.098;2024-03-02T11:42:08;17.16;61.11
70826;SHT31;58446;41.490;22.098;2024-03-02T11:44:38;17.34;61.97
70826;SHT31;58446;41.490;22.098;2024-03-02T11:47:08;17.47;61.89
70826;SHT31;58446;41.490;22.098;2024-03-02T11:49:51;17.61;61.07
70826;SHT31;58446;41.490;22.098;2024-03-02T11:52:17;17.47;61.36
70826;SHT31;58446;41.490;22.098;2024-03-02T11:54:45;17.73;60.97
70826;SHT31;58446;41.490;22.098;2024-03-02T11:57:17;17.81;61.13
70826;SHT31;58446;41.490;22.098;2024-03-02T11:59:43;17.73;60.79
70826;SHT31;58446;41.490;22.098;2024-03-02T12:02:21;17.74;60.56
70826;SHT31;58446;41.490;22.098;2024-03-02T12:04:49;17.81;61.39
70826;SHT31;58446;41.490;22.098;2024-03-02T12:07:22;17.91;59.70
70826;SHT31;58446;41.490;22.098;2024-03-02T12:09:49;17.98;60.34
70826;SHT31;58446;41.490;22.098;2024-03-02T12:12:25;18.08;59.30
70826;SHT31;58446;41.490;22.098;2024-03-02T12:14:52;18.15;60.44
70826;SHT31;58446;41.490;22.098;2024-03-02T12:17:20;18.33;59.07
70826;SHT31;58446;41.490;22.098;2024-03-02T12:19:46;18.43;59.01
70826;SHT31;58446;41.490;22.098;2024-03-02T12:22:12;18.53;58.50
70826;SHT31;58446;41.490;22.098;2024-03-02T12:24:38;18.56;57.03
70826;SHT31;58446;41.490;22.098;2024-03-02T12:27:07;18.16;58.48
70826;SHT31;58446;41.490;22.098;2024-03-02T12:29:34;17.87;58.64
70826;SHT31;58446;41.490;22.098;2024-03-02T12:31:59;17.84;58.92
70826;SHT31;58446;41.490;22.098;2024-03-02T12:34:27;17.84;57.93
70826;SHT31;58446;41.490;22.098;2024-03-02T12:36:53;17.81;58.71
70826;SHT31;58446;41.490;22.098;2024-03-02T12:39:19;17.74;59.13
70826;SHT31;58446;41.490;22.098;2024-03-02T12:41:50;17.73;59.12
70826;SHT31;58446;41.490;22.098;2024-03-02T12:44:20;17.58;58.36
70826;SHT31;58446;41.490;22.098;2024-03-02T12:46:46;17.19;59.24
70826;SHT31;58446;41.490;22.098;2024-03-02T12:49:13;17.26;59.62
70826;SHT31;58446;41.490;22.098;2024-03-02T12:51:40;17.23;58.99
70826;SHT31;58446;41.490;22.098;2024-03-02T12:54:08;17.16;59.75
70826;SHT31;58446;41.490;22.098;2024-03-02T12:56:35;17.24;60.43
70826;SHT31;58446;41.490;22.098;2024-03-02T12:59:05;17.44;59.74
70826;SHT31;58446;41.490;22.098;2024-03-02T13:01:31;17.57;60.18
70826;SHT31;58446;41.490;22.098;2024-03-02T13:03:58;17.71;59.92
70826;SHT31;58446;41.490;22.098;2024-03-02T13:06:27;17.63;58.40
70826;SHT31;58446;41.490;22.098;2024-03-02T13:08:53;17.55;59.22
70826;SHT31;58446;41.490;22.098;2024-03-02T13:11:24;17.48;58.94
70826;SHT31;58446;41.490;22.098;2024-03-02T13:13:51;17.51;58.41
70826;SHT31;58446;41.490;22.098;2024-03-02T13:16:18;17.51;59.07
70826;SHT31;58446;41.490;22.098;2024-03-02T13:18:45;17.47;59.68
70826;SHT31;58446;41.490;22.098;2024-03-02T13:21:11;17.46;59.49
70826;SHT31;58446;41.490;22.098;2024-03-02T13:23:36;17.47;60.08
70826;SHT31;58446;41.490;22.098;2024-03-02T13:26:03;17.54;58.64
70826;SHT31;58446;41.490;22.098;2024-03-02T13:28:29;17.31;58.19
70826;SHT31;58446;41.490;22.098;2024-03-02T13:30:55;17.54;58.00
70826;SHT31;58446;41.490;22.098;2024-03-02T13:33:21;17.64;56.33
70826;SHT31;58446;41.490;22.098;2024-03-02T13:35:49;17.68;54.56
70826;SHT31;58446;41.490;22.098;2024-03-02T13:38:24;17.70;55.88
70826;SHT31;58446;41.490;22.098;2024-03-02T13:40:50;17.71;55.98
70826;SHT31;58446;41.490;22.098;2024-03-02T13:43:18;17.48;55.32
70826;SHT31;58446;41.490;22.098;2024-03-02T13:45:45;17.53;55.43
70826;SHT31;58446;41.490;22.098;2024-03-02T13:48:10;17.57;55.45
70826;SHT31;58446;41.490;22.098;2024-03-02T13:50:36;17.73;54.80
70826;SHT31;58446;41.490;22.098;2024-03-02T13:53:02;17.91;55.56
70826;SHT31;58446;41.490;22.098;2024-03-02T13:55:28;18.08;55.19
70826;SHT31;58446;41.490;22.098;2024-03-02T13:57:54;18.16;53.34
70826;SHT31;58446;41.490;22.098;2024-03-02T14:00:21;18.10;53.73
70826;SHT31;58446;41.490;22.098;2024-03-02T14:02:47;18.19;54.37
70826;SHT31;58446;41.490;22.098;2024-03-02T14:05:15;18.18;54.41
70826;SHT31;58446;41.490;22.098;2024-03-02T14:07:41;18.24;53.73
70826;SHT31;58446;41.490;22.098;2024-03-02T14:10:08;18.26;51.98
70826;SHT31;58446;41.490;22.098;2024-03-02T14:12:33;18.24;53.48
70826;SHT31;58446;41.490;22.098;2024-03-02T14:14:59;17.81;53.28
70826;SHT31;58446;41.490;22.098;2024-03-02T14:17:27;17.75;53.19
70826;SHT31;58446;41.490;22.098;2024-03-02T14:19:53;17.57;52.80
70826;SHT31;58446;41.490;22.098;2024-03-02T14:22:20;17.47;52.86
70826;SHT31;58446;41.490;22.098;2024-03-02T14:24:46;17.60;53.58
70826;SHT31;58446;41.490;22.098;2024-03-02T14:27:12;17.51;53.37
70826;SHT31;58446;41.490;22.098;2024-03-02T14:29:40;17.66;54.03
70826;SHT31;58446;41.490;22.098;2024-03-02T14:32:06;17.74;53.30
70826;SHT31;58446;41.490;22.098;2024-03-02T14:34:32;17.77;52.57
70826;SHT31;58446;41.490;22.098;2024-03-02T14:36:58;17.77;54.10
70826;SHT31;58446;41.490;22.098;2024-03-02T14:39:25;17.87;54.04
70826;SHT31;58446;41.490;22.098;2024-03-02T14:41:51;17.88;52.99
70826;SHT31;58446;41.490;22.098;2024-03-02T14:44:17;17.71;53.09
70826;SHT31;58446;41.490;22.098;2024-03-02T14:46:43;17.50;53.30
70826;SHT31;58446;41.490;22.098;2024-03-02T14:49:12;17.48;54.51
70826;SHT31;58446;41.490;22.098;2024-03-02T14:51:38;17.38;54.50
70826;SHT31;58446;41.490;22.098;2024-03-02T14:54:04;17.37;55.05
70826;SHT31;58446;41.490;22.098;2024-03-02T14:56:30;17.27;55.56
70826;SHT31;58446;41.490;22.098;2024-03-02T14:58:55;17.23;56.12
70826;SHT31;58446;41.490;22.098;2024-03-02T15:01:21;17.22;55.88
70826;SHT31;58446;41.490;22.098;2024-03-02T15:03:51;17.12;55.67
70826;SHT31;58446;41.490;22.098;2024-03-02T15:06:17;17.03;57.43
70826;SHT31;58446;41.490;22.098;2024-03-02T15:08:44;17.02;57.23
70826;SHT31;58446;41.490;22.098;2024-03-02T15:11:13;16.92;57.33
70826;SHT31;58446;41.490;22.098;2024-03-02T15:13:39;16.98;57.43
70826;SHT31;58446;41.490;22.098;2024-03-02T15:16:05;17.02;57.69
70826;SHT31;58446;41.490;22.098;2024-03-02T15:18:31;17.06;57.51
70826;SHT31;58446;41.490;22.098;2024-03-02T15:20:57;17.07;57.64
70826;SHT31;58446;41.490;22.098;2024-03-02T15:23:23;17.05;58.19